Time;durP1;ratioP1;P1;durP2;ratioP2;P2;SDS_P1;SDS_P2;PMS_P1;PMS_P2;Temp;Humidity;BMP_temperature;BMP_pressure;BME280_temperature;BME280_humidity;BME280_pressure;Samples;Min_cycle;Max_cycle;Signal;HPM_P1;HPM_P2
2022/12/27 00:00:05;;;;;;;10.18;4.05;;;3.10;99.90;;;;;;4994269;28;20490;-36
2022/12/27 00:02:31;;;;;;;10.52;2.88;;;3.00;99.90;;;;;;5009407;28;20049;-36
2022/12/27 00:04:57;;;;;;;10.85;4.07;;;3.10;99.90;;;;;;4994283;28;20491;-36
2022/12/27 00:07:23;;;;;;;12.20;3.42;;;3.10;99.90;;;;;;4996109;28;20088;-36
2022/12/27 00:09:48;;;;;;;10.30;3.08;;;3.10;99.90;;;;;;5010536;28;20116;-36
2022/12/27 00:12:14;;;;;;;11.43;3.17;;;3.10;99.90;;;;;;5019166;28;20379;-36
2022/12/27 00:14:40;;;;;;;6.55;3.35;;;3.20;99.90;;;;;;4996257;28;20034;-38
2022/12/27 00:17:06;;;;;;;8.23;2.95;;;3.20;99.90;;;;;;5004633;28;20034;-37
2022/12/27 00:19:31;;;;;;;7.88;3.95;;;3.20;99.90;;;;;;4993620;28;20406;-37
2022/12/27 00:21:58;;;;;;;8.63;3.47;;;3.20;99.90;;;;;;4996330;28;20049;-37
2022/12/27 00:24:24;;;;;;;7.22;3.65;;;3.20;99.90;;;;;;4995308;28;20034;-37
2022/12/27 00:26:49;;;;;;;13.30;5.78;;;3.20;99.90;;;;;;4978895;28;20081;-37
2022/12/27 00:29:15;;;;;;;9.18;4.03;;;3.20;99.90;;;;;;5012233;28;20453;-38
2022/12/27 00:31:41;;;;;;;12.50;6.15;;;3.20;99.90;;;;;;5006257;28;20030;-37
2022/12/27 00:34:07;;;;;;;22.77;9.52;;;3.20;99.90;;;;;;4999810;28;20506;-38
2022/12/27 00:36:33;;;;;;;16.15;5.50;;;3.20;99.90;;;;;;4999811;28;20038;-34
2022/12/27 00:38:59;;;;;;;17.75;7.22;;;3.20;99.90;;;;;;4994422;28;20096;-35
2022/12/27 00:41:25;;;;;;;11.98;4.70;;;3.20;99.90;;;;;;4994573;28;20037;-38
2022/12/27 00:43:51;;;;;;;14.05;5.38;;;3.20;99.90;;;;;;4993850;28;20046;-37
2022/12/27 00:46:17;;;;;;;11.93;5.68;;;3.20;99.90;;;;;;4995260;28;20088;-37
2022/12/27 00:48:43;;;;;;;14.43;7.10;;;3.10;99.90;;;;;;4997889;28;20065;-38
2022/12/27 00:51:19;;;;;;;9.63;3.80;;;3.00;99.90;;;;;;5001671;28;20554;-38
2022/12/27 00:53:45;;;;;;;7.80;4.28;;;3.00;99.90;;;;;;4987931;28;20042;-37
2022/12/27 00:56:18;;;;;;;11.98;5.60;;;3.10;99.90;;;;;;5013361;28;20042;-39
2022/12/27 00:58:44;;;;;;;11.95;5.60;;;3.10;99.90;;;;;;5017674;28;20040;-37
2022/12/27 01:01:16;;;;;;;11.55;5.25;;;3.10;99.90;;;;;;4996677;28;20046;-37
2022/12/27 01:03:42;;;;;;;6.90;3.63;;;3.10;99.90;;;;;;4993189;28;20041;-37
2022/12/27 01:06:14;;;;;;;12.15;5.13;;;3.10;99.90;;;;;;4993189;28;20042;-38
2022/12/27 01:08:41;;;;;;;11.15;5.53;;;3.00;99.90;;;;;;5003102;28;20510;-37
2022/12/27 01:11:07;;;;;;;9.40;3.95;;;3.00;99.90;;;;;;5003818;28;20398;-37
2022/12/27 01:13:37;;;;;;;13.60;4.90;;;3.00;99.90;;;;;;4996854;28;20076;-38
2022/12/27 01:16:12;;;;;;;17.83;5.05;;;3.00;99.90;;;;;;4997038;28;20505;-43
2022/12/27 01:18:38;;;;;;;9.40;3.88;;;2.90;99.90;;;;;;5007350;28;20521;-37
2022/12/27 01:21:06;;;;;;;9.43;3.95;;;2.80;99.90;;;;;;4996950;28;20033;-37
2022/12/27 01:23:32;;;;;;;10.68;3.88;;;2.80;99.90;;;;;;4997525;28;20097;-40
2022/12/27 01:26:06;;;;;;;14.82;4.30;;;2.90;99.90;;;;;;4995225;28;20133;-38
2022/12/27 01:28:32;;;;;;;7.35;3.85;;;2.80;99.90;;;;;;5013812;28;20121;-40
2022/12/27 01:31:02;;;;;;;11.93;4.07;;;2.80;99.90;;;;;;4998259;28;20447;-40
2022/12/27 01:33:28;;;;;;;7.10;3.33;;;2.90;99.90;;;;;;4995528;28;20045;-38
2022/12/27 01:35:54;;;;;;;8.85;3.47;;;2.80;99.90;;;;;;5015954;28;20071;-37
2022/12/27 01:38:20;;;;;;;6.90;3.25;;;2.80;99.90;;;;;;5000616;28;20485;-37
2022/12/27 01:40:45;;;;;;;8.60;3.97;;;2.80;99.90;;;;;;4990545;28;20438;-37
2022/12/27 01:43:37;;;;;;;8.80;3.85;;;2.90;99.90;;;;;;4996082;28;20034;-37
2022/12/27 01:46:03;;;;;;;9.20;3.55;;;2.90;99.90;;;;;;4994524;28;20053;-37
2022/12/27 01:48:29;;;;;;;8.82;4.00;;;2.90;99.90;;;;;;4999885;28;20117;-37
2022/12/27 01:50:59;;;;;;;13.88;4.15;;;2.90;99.90;;;;;;5004240;28;20109;-38
2022/12/27 01:53:42;;;;;;;12.35;4.03;;;2.90;99.90;;;;;;4995258;28;20072;-38
2022/12/27 01:56:26;;;;;;;12.35;4.80;;;2.80;99.90;;;;;;5000918;28;20120;-38
2022/12/27 01:59:03;;;;;;;12.70;4.68;;;2.90;99.90;;;;;;5012514;28;20073;-38
2022/12/27 02:01:33;;;;;;;10.65;4.45;;;2.80;99.90;;;;;;5013960;28;20045;-40
2022/12/27 02:04:15;;;;;;;8.93;3.95;;;2.80;99.90;;;;;;4998402;28;20042;-38
2022/12/27 02:06:41;;;;;;;11.15;4.13;;;2.80;99.90;;;;;;4997708;28;20034;-40
2022/12/27 02:09:22;;;;;;;9.98;4.28;;;2.90;99.90;;;;;;5005059;28;21359;-37
2022/12/27 02:11:54;;;;;;;14.23;4.43;;;2.90;99.90;;;;;;4997264;28;20049;-38
2022/12/27 02:14:28;;;;;;;11.52;4.68;;;2.90;99.90;;;;;;4998545;28;20041;-38
2022/12/27 02:16:56;;;;;;;9.52;4.45;;;2.80;99.90;;;;;;4990977;28;20049;-37
2022/12/27 02:19:40;;;;;;;8.10;4.65;;;2.90;99.90;;;;;;5011834;28;20044;-38
2022/12/27 02:22:24;;;;;;;11.15;4.50;;;2.90;99.90;;;;;;5001230;28;20129;-38
2022/12/27 02:24:50;;;;;;;11.00;5.22;;;2.90;99.90;;;;;;5008388;28;20053;-38
2022/12/27 02:27:43;;;;;;;10.80;4.50;;;2.90;99.90;;;;;;5017594;28;20037;-38
2022/12/27 02:30:12;;;;;;;10.18;4.43;;;2.90;99.90;;;;;;5008478;28;20037;-37
2022/12/27 02:33:03;;;;;;;11.35;4.72;;;3.00;99.90;;;;;;4995486;28;20504;-41
2022/12/27 02:35:32;;;;;;;8.02;4.75;;;3.00;99.90;;;;;;5001288;28;20041;-37
2022/12/27 02:38:10;;;;;;;11.25;4.63;;;3.00;99.90;;;;;;4995846;28;20045;-38
2022/12/27 02:55:31;;;;;;;10.23;4.40;;;3.00;99.90;;;;;;5012907;28;20092;-39
2022/12/27 02:58:15;;;;;;;6.47;4.05;;;3.00;99.90;;;;;;5004593;28;20487;-36
2022/12/27 03:04:21;;;;;;;10.15;3.85;;;3.00;99.90;;;;;;5011073;28;20137;-36
2022/12/27 03:07:08;;;;;;;10.10;4.00;;;3.00;99.90;;;;;;4991543;28;20044;-39
2022/12/27 03:16:06;;;;;;;11.68;3.97;;;2.90;99.90;;;;;;5005230;28;20096;-37
2022/12/27 03:18:41;;;;;;;8.65;3.53;;;3.00;99.90;;;;;;4996797;28;20042;-38
2022/12/27 03:26:50;;;;;;;9.07;3.63;;;2.90;99.90;;;;;;5012322;28;20175;-34
2022/12/27 03:35:02;;;;;;;11.60;3.47;;;3.00;99.90;;;;;;5012120;28;20153;-33
2022/12/27 03:43:09;;;;;;;14.95;3.63;;;3.10;99.90;;;;;;5011730;28;20041;-33
2022/12/27 03:43:27;;;;;;;11.88;4.40;;;3.20;99.90;;;;;;5011874;28;20050;-34
2022/12/27 03:49:08;;;;;;;9.07;3.38;;;3.20;99.90;;;;;;4997813;28;20565;-35
2022/12/27 03:51:51;;;;;;;10.48;3.45;;;3.30;99.90;;;;;;4983944;28;20042;-34
2022/12/27 03:54:28;;;;;;;8.90;4.13;;;3.20;99.90;;;;;;4994605;28;20042;-34
2022/12/27 03:57:01;;;;;;;11.57;3.88;;;3.30;99.90;;;;;;4994327;28;20495;-34
2022/12/27 03:59:27;;;;;;;13.70;4.05;;;3.40;99.90;;;;;;5011071;28;20045;-34
2022/12/27 04:01:53;;;;;;;34.28;13.57;;;3.40;99.90;;;;;;5004515;28;20045;-34
2022/12/27 04:04:19;;;;;;;29.90;11.35;;;3.50;99.90;;;;;;4993288;28;20043;-34
2022/12/27 04:06:44;;;;;;;26.75;10.80;;;3.50;99.90;;;;;;4990621;28;20045;-34
2022/12/27 04:36:35;;;;;;;13.10;4.25;;;3.80;99.90;;;;;;5011471;28;20100;-36
2022/12/27 04:39:01;;;;;;;11.82;5.10;;;3.70;99.90;;;;;;5000866;28;20034;-36
2022/12/27 04:55:24;;;;;;;10.10;3.83;;;3.90;99.90;;;;;;5018296;28;20107;-36
2022/12/27 04:57:51;;;;;;;9.57;4.22;;;3.90;99.90;;;;;;5017099;28;20112;-36
2022/12/27 05:03:06;;;;;;;12.75;5.30;;;3.70;99.90;;;;;;5019241;28;20048;-36
2022/12/27 05:05:34;;;;;;;10.00;3.92;;;3.70;99.90;;;;;;4998625;28;20507;-36
2022/12/27 05:16:14;;;;;;;8.10;4.07;;;3.50;99.90;;;;;;5024433;28;20398;-36
2022/12/27 05:18:40;;;;;;;8.48;4.10;;;3.50;99.90;;;;;;5001566;28;20038;-36
2022/12/27 05:21:07;;;;;;;10.75;4.93;;;3.50;99.90;;;;;;4997790;28;20072;-36
2022/12/27 05:26:22;;;;;;;9.95;4.47;;;3.60;99.90;;;;;;5015617;28;20053;-36
2022/12/27 05:28:50;;;;;;;10.07;4.65;;;3.60;99.90;;;;;;4998508;28;20048;-36
2022/12/27 05:31:15;;;;;;;9.50;4.32;;;3.50;99.90;;;;;;5007513;28;20042;-36
2022/12/27 05:33:41;;;;;;;11.60;4.65;;;3.50;99.90;;;;;;4998256;28;20041;-36
2022/12/27 05:36:08;;;;;;;9.90;4.40;;;3.40;99.90;;;;;;4998247;28;20488;-36
2022/12/27 05:38:33;;;;;;;10.45;4.60;;;3.40;99.90;;;;;;4997682;28;20037;-36
2022/12/27 05:41:00;;;;;;;8.75;4.03;;;3.40;99.90;;;;;;4997175;28;20495;-36
2022/12/27 05:43:27;;;;;;;10.45;4.13;;;3.30;99.90;;;;;;4996203;28;20041;-36
2022/12/27 05:45:54;;;;;;;11.98;3.80;;;3.40;99.90;;;;;;4996957;28;20495;-36
2022/12/27 05:48:21;;;;;;;10.50;3.55;;;3.50;99.90;;;;;;5015255;28;20394;-36
2022/12/27 05:50:46;;;;;;;10.10;3.42;;;3.50;99.90;;;;;;5001303;28;20082;-36
2022/12/27 05:53:12;;;;;;;11.20;4.05;;;3.50;99.90;;;;;;4997123;28;20073;-36
2022/12/27 05:55:41;;;;;;;9.75;4.20;;;3.60;99.90;;;;;;4996086;28;20088;-36
2022/12/27 05:58:07;;;;;;;7.57;3.45;;;3.60;99.90;;;;;;5003079;28;20513;-35
2022/12/27 06:00:33;;;;;;;11.25;4.13;;;3.60;99.90;;;;;;4995885;28;20057;-35
2022/12/27 06:02:58;;;;;;;14.70;4.30;;;3.70;99.90;;;;;;5004365;28;20051;-35
2022/12/27 06:05:25;;;;;;;10.07;4.07;;;3.70;99.90;;;;;;5004678;28;20038;-35
2022/12/27 06:07:51;;;;;;;7.63;3.30;;;3.70;99.90;;;;;;4999038;28;20043;-36
2022/12/27 06:10:16;;;;;;;12.38;3.10;;;3.80;99.90;;;;;;5029980;28;20045;-35
2022/12/27 06:12:42;;;;;;;7.85;3.05;;;3.80;99.90;;;;;;4982965;28;20037;-36
2022/12/27 06:15:08;;;;;;;11.38;3.45;;;3.90;99.90;;;;;;4997923;28;20578;-35
2022/12/27 06:17:34;;;;;;;12.32;4.22;;;4.00;99.90;;;;;;4995604;28;20029;-36
2022/12/27 06:20:00;;;;;;;11.82;4.18;;;4.00;99.90;;;;;;5002796;28;20037;-35
2022/12/27 06:22:26;;;;;;;10.73;4.25;;;4.10;99.90;;;;;;4985914;28;20061;-35
2022/12/27 06:24:51;;;;;;;7.80;4.10;;;4.10;99.90;;;;;;4995830;28;20038;-35
2022/12/27 06:27:17;;;;;;;10.45;3.72;;;4.10;99.90;;;;;;4995873;28;20033;-35
2022/12/27 06:29:43;;;;;;;11.00;3.75;;;4.20;99.90;;;;;;4982266;28;20045;-36
2022/12/27 06:32:09;;;;;;;7.20;3.10;;;4.20;99.90;;;;;;5014112;28;20510;-36
2022/12/27 06:34:34;;;;;;;9.23;3.67;;;4.20;99.90;;;;;;4981444;28;20037;-36
2022/12/27 06:37:00;;;;;;;8.00;3.83;;;4.20;99.90;;;;;;5002685;28;20091;-36
2022/12/27 06:39:26;;;;;;;12.48;4.30;;;4.20;99.90;;;;;;5009664;28;20579;-35
2022/12/27 06:41:54;;;;;;;11.27;5.13;;;4.20;99.90;;;;;;4995626;28;20491;-35
2022/12/27 06:44:20;;;;;;;18.20;5.07;;;4.20;99.90;;;;;;4995764;28;20045;-35
2022/12/27 06:46:46;;;;;;;11.88;5.88;;;4.10;99.90;;;;;;5001674;28;20029;-36
2022/12/27 06:49:12;;;;;;;10.27;4.45;;;4.10;99.90;;;;;;5004050;28;20117;-36
2022/12/27 06:51:37;;;;;;;10.18;6.18;;;4.00;99.90;;;;;;5017208;28;20598;-35
2022/12/27 06:54:03;;;;;;;13.98;6.18;;;3.90;99.90;;;;;;4997640;28;20095;-36
2022/12/27 06:56:29;;;;;;;13.98;6.13;;;3.90;99.90;;;;;;4999581;28;20450;-36
2022/12/27 06:58:55;;;;;;;11.20;5.45;;;3.90;99.90;;;;;;5001429;28;20398;-36
2022/12/27 07:01:23;;;;;;;11.25;4.32;;;3.90;99.90;;;;;;4983101;28;20486;-36
2022/12/27 07:03:54;;;;;;;11.23;4.13;;;3.90;99.90;;;;;;4999947;28;20052;-35
2022/12/27 07:06:22;;;;;;;9.82;4.50;;;3.80;99.90;;;;;;5005083;28;20064;-35
2022/12/27 07:08:49;;;;;;;10.77;4.93;;;3.80;99.90;;;;;;4994895;28;20049;-35
2022/12/27 07:11:16;;;;;;;16.40;6.35;;;3.80;99.90;;;;;;5018784;28;20479;-36
2022/12/27 07:13:48;;;;;;;13.55;6.22;;;3.80;99.90;;;;;;4994736;28;20039;-36
2022/12/27 07:16:18;;;;;;;13.68;6.88;;;3.70;99.90;;;;;;4997767;28;20033;-36
2022/12/27 07:18:44;;;;;;;12.35;6.43;;;3.70;99.90;;;;;;5009325;28;20034;-36
2022/12/27 07:21:15;;;;;;;11.43;6.95;;;3.70;99.90;;;;;;4994292;28;20406;-37
2022/12/27 07:23:42;;;;;;;13.90;6.47;;;3.70;99.90;;;;;;4992427;28;20168;-35
2022/12/27 07:26:13;;;;;;;12.80;6.75;;;3.60;99.90;;;;;;4994411;28;20086;-35
2022/12/27 07:28:39;;;;;;;13.32;7.07;;;3.60;99.90;;;;;;4990146;28;20040;-35
2022/12/27 07:31:12;;;;;;;16.13;5.93;;;3.60;99.90;;;;;;4994325;28;20041;-34
2022/12/27 07:33:38;;;;;;;12.90;5.55;;;3.60;99.90;;;;;;4997402;28;20036;-35
2022/12/27 07:36:08;;;;;;;14.75;5.70;;;3.60;99.90;;;;;;4978579;28;20073;-35
2022/12/27 07:38:33;;;;;;;14.65;6.32;;;3.60;99.90;;;;;;4994371;28;20092;-35
2022/12/27 07:41:00;;;;;;;11.35;5.85;;;3.60;99.90;;;;;;4994358;28;20170;-35
2022/12/27 07:43:29;;;;;;;13.48;5.72;;;3.60;99.90;;;;;;4992796;28;20041;-35
2022/12/27 07:46:01;;;;;;;10.55;4.65;;;3.60;99.90;;;;;;5004916;28;20041;-35
2022/12/27 07:48:27;;;;;;;10.65;4.43;;;3.70;99.90;;;;;;4993488;28;20042;-35
2022/12/27 07:50:56;;;;;;;7.97;4.20;;;3.70;99.90;;;;;;4994979;28;20050;-35
2022/12/27 07:53:22;;;;;;;13.65;5.53;;;3.60;99.90;;;;;;4994130;28;20073;-35
2022/12/27 07:55:50;;;;;;;9.23;4.43;;;3.60;99.90;;;;;;4994882;28;20565;-35
2022/12/27 07:58:17;;;;;;;12.05;5.40;;;3.50;99.90;;;;;;4979118;28;20225;-34
2022/12/27 08:00:45;;;;;;;10.35;4.80;;;3.50;99.90;;;;;;4993694;28;20072;-35
2022/12/27 08:03:11;;;;;;;23.20;5.50;;;3.50;99.90;;;;;;5000523;28;20045;-34
2022/12/27 08:05:36;;;;;;;14.30;4.90;;;3.50;99.90;;;;;;4998023;28;20522;-35
2022/12/27 08:08:03;;;;;;;12.13;5.57;;;3.50;99.90;;;;;;4994435;28;20040;-37
2022/12/27 08:10:29;;;;;;;36.30;12.93;;;3.50;99.90;;;;;;4994892;28;20077;-34
2022/12/27 08:12:54;;;;;;;23.27;8.45;;;3.50;99.90;;;;;;4995596;28;20462;-35
2022/12/27 08:15:20;;;;;;;30.10;11.38;;;3.50;99.90;;;;;;5002803;28;20121;-35
2022/12/27 08:17:46;;;;;;;14.80;5.45;;;3.60;99.90;;;;;;4996705;28;20096;-35
2022/12/27 08:20:15;;;;;;;15.52;5.65;;;3.60;99.90;;;;;;4991192;28;20101;-34
2022/12/27 08:22:41;;;;;;;18.48;8.68;;;3.60;99.90;;;;;;4994054;28;20503;-34
2022/12/27 08:25:07;;;;;;;16.15;6.43;;;3.50;99.90;;;;;;4994272;28;20095;-35
2022/12/27 08:27:33;;;;;;;16.23;7.03;;;3.50;99.90;;;;;;4995291;28;20041;-35
2022/12/27 08:29:58;;;;;;;25.50;9.52;;;3.50;99.90;;;;;;4978150;28;20049;-35
2022/12/27 08:32:24;;;;;;;15.43;7.75;;;3.40;99.90;;;;;;4994571;28;20470;-34
2022/12/27 08:34:50;;;;;;;19.63;9.45;;;3.50;99.90;;;;;;4994288;28;20487;-34
2022/12/27 08:37:16;;;;;;;27.00;13.38;;;3.40;99.90;;;;;;4994624;28;20491;-35
2022/12/27 08:39:41;;;;;;;40.60;18.92;;;3.40;99.90;;;;;;5010607;28;20041;-35
2022/12/27 08:42:11;;;;;;;30.50;17.23;;;3.50;99.90;;;;;;4978158;28;20111;-35
2022/12/27 08:44:37;;;;;;;22.20;11.50;;;3.50;99.90;;;;;;4994269;28;20037;-35
2022/12/27 08:47:03;;;;;;;25.58;12.88;;;3.50;99.90;;;;;;4997573;28;20033;-35
2022/12/27 08:49:29;;;;;;;15.02;8.95;;;3.60;99.90;;;;;;5011937;28;20048;-35
2022/12/27 08:51:55;;;;;;;14.55;7.50;;;3.60;99.90;;;;;;4994020;28;20034;-34
2022/12/27 08:54:20;;;;;;;35.30;18.65;;;3.60;99.90;;;;;;4994527;28;20042;-35
2022/12/27 08:56:46;;;;;;;22.27;11.05;;;3.70;99.90;;;;;;4994175;28;20064;-34
2022/12/27 08:59:12;;;;;;;19.85;11.23;;;3.70;99.90;;;;;;4994262;28;20494;-34
2022/12/27 09:01:41;;;;;;;23.88;14.25;;;3.70;99.90;;;;;;4993714;28;20077;-34
2022/12/27 09:04:07;;;;;;;18.25;10.13;;;3.70;99.90;;;;;;4994365;28;20515;-35
2022/12/27 09:06:33;;;;;;;20.40;11.38;;;3.70;99.90;;;;;;4994125;28;20073;-34
2022/12/27 09:09:00;;;;;;;19.35;10.57;;;3.80;99.90;;;;;;4994283;28;20380;-35
2022/12/27 09:11:32;;;;;;;17.73;10.35;;;3.80;99.90;;;;;;4997014;28;20069;-35
2022/12/27 09:14:03;;;;;;;13.18;7.85;;;3.80;99.90;;;;;;5010367;28;20104;-35
2022/12/27 09:16:29;;;;;;;20.08;10.07;;;3.80;99.90;;;;;;5010069;28;20045;-34
2022/12/27 09:18:57;;;;;;;23.98;7.90;;;3.90;99.90;;;;;;4995005;28;20045;-34
2022/12/27 09:21:24;;;;;;;18.23;7.90;;;3.90;99.90;;;;;;5010267;28;20121;-35
2022/12/27 09:23:51;;;;;;;16.48;9.80;;;4.00;99.90;;;;;;4993729;28;20161;-35
2022/12/27 09:26:22;;;;;;;16.65;7.50;;;4.10;99.90;;;;;;4993314;28;20038;-35
2022/12/27 09:28:49;;;;;;;12.75;6.85;;;4.40;99.90;;;;;;5013474;28;20124;-35
2022/12/27 09:31:17;;;;;;;11.93;6.70;;;4.70;99.90;;;;;;4999758;28;20081;-35
2022/12/27 09:33:43;;;;;;;14.40;7.47;;;5.00;99.90;;;;;;4977578;28;20109;-35
2022/12/27 09:36:12;;;;;;;12.57;5.55;;;5.30;99.90;;;;;;4996169;28;20064;-34
2022/12/27 09:38:39;;;;;;;10.43;6.90;;;5.50;99.90;;;;;;4982609;28;20037;-35
2022/12/27 09:41:50;;;;;;;9.43;4.82;;;5.80;99.90;;;;;;4997157;28;20508;-35
2022/12/27 09:44:22;;;;;;;11.55;5.00;;;6.10;99.90;;;;;;4989726;28;20050;-35
2022/12/27 09:46:51;;;;;;;10.43;5.70;;;6.60;99.90;;;;;;4997407;28;20054;-35
2022/12/27 09:49:31;;;;;;;10.57;5.20;;;6.80;99.90;;;;;;4987686;28;20048;-34
2022/12/27 09:52:04;;;;;;;9.98;4.63;;;6.90;99.90;;;;;;5000582;28;20033;-35
2022/12/27 09:54:48;;;;;;;10.88;4.53;;;6.90;99.90;;;;;;4992327;28;20038;-35
2022/12/27 09:57:23;;;;;;;8.60;4.63;;;6.70;99.90;;;;;;5013239;28;20037;-35
2022/12/27 09:59:55;;;;;;;10.57;4.43;;;6.50;99.90;;;;;;5012811;28;20038;-35
2022/12/27 10:02:24;;;;;;;10.60;4.97;;;6.20;99.90;;;;;;4998243;28;20100;-35
2022/12/27 10:04:52;;;;;;;12.65;5.30;;;5.90;99.90;;;;;;4999672;28;20099;-35
2022/12/27 10:07:39;;;;;;;10.23;4.90;;;5.70;99.90;;;;;;5000006;28;20050;-35
2022/12/27 10:10:47;;;;;;;9.85;4.13;;;5.90;99.90;;;;;;4987563;28;20403;-35
2022/12/27 10:13:18;;;;;;;8.10;4.50;;;6.60;99.90;;;;;;5016209;28;20487;-35
2022/12/27 10:16:14;;;;;;;10.07;4.55;;;6.90;99.90;;;;;;4996555;28;20506;-36
2022/12/27 10:18:55;;;;;;;8.60;4.85;;;7.00;99.90;;;;;;4996817;28;20399;-34
2022/12/27 10:21:24;;;;;;;12.18;4.70;;;7.20;99.90;;;;;;4996384;28;20038;-35
2022/12/27 10:24:16;;;;;;;10.27;4.38;;;7.30;99.90;;;;;;4997616;28;20038;-35
2022/12/27 10:26:43;;;;;;;7.75;3.55;;;7.20;99.90;;;;;;4997691;28;20048;-35
2022/12/27 10:29:22;;;;;;;9.30;3.75;;;7.10;99.90;;;;;;5004307;28;20389;-35
2022/12/27 10:31:47;;;;;;;8.77;3.95;;;7.00;99.90;;;;;;5002049;28;20045;-36
2022/12/27 10:34:16;;;;;;;8.27;3.70;;;7.00;99.90;;;;;;4997413;28;20092;-35
2022/12/27 10:36:43;;;;;;;8.90;3.88;;;6.90;99.90;;;;;;4993429;28;20038;-35
2022/12/27 10:39:17;;;;;;;8.90;3.67;;;6.90;99.90;;;;;;4996478;28;20048;-35
2022/12/27 10:42:28;;;;;;;7.68;3.78;;;6.90;99.90;;;;;;5015038;28;20161;-35
2022/12/27 10:45:33;;;;;;;11.80;3.90;;;7.00;99.90;;;;;;5016057;28;20057;-35
2022/12/27 10:48:24;;;;;;;9.60;3.45;;;7.20;99.90;;;;;;4998689;28;20034;-36
2022/12/27 10:50:58;;;;;;;7.93;3.47;;;7.30;99.90;;;;;;4998699;28;20042;-34
2022/12/27 10:53:36;;;;;;;9.88;3.88;;;7.90;99.90;;;;;;5015749;28;20048;-34
2022/12/27 10:56:33;;;;;;;6.40;2.72;;;8.70;99.90;;;;;;4998648;28;20041;-34
2022/12/27 10:59:10;;;;;;;8.30;3.08;;;9.60;99.90;;;;;;5015568;28;20077;-34
2022/12/27 11:01:38;;;;;;;10.02;3.30;;;9.90;99.90;;;;;;4998274;28;20065;-35
2022/12/27 11:04:23;;;;;;;8.30;3.22;;;9.60;99.90;;;;;;5010615;28;20034;-34
2022/12/27 11:06:58;;;;;;;11.43;4.15;;;9.20;99.90;;;;;;5024666;28;20045;-34
2022/12/27 11:09:43;;;;;;;6.55;3.28;;;8.70;99.90;;;;;;4999970;28;20054;-34
2022/12/27 11:12:24;;;;;;;5.97;3.38;;;8.50;99.90;;;;;;4999236;28;20037;-35
2022/12/27 11:15:21;;;;;;;9.57;3.92;;;8.50;99.90;;;;;;4996911;28;20038;-35
2022/12/27 11:17:57;;;;;;;6.90;2.97;;;8.70;99.90;;;;;;4997339;28;20072;-35
2022/12/27 11:20:30;;;;;;;10.75;3.42;;;9.30;99.90;;;;;;4995971;28;20045;-35
2022/12/27 11:23:04;;;;;;;7.75;3.22;;;10.00;99.90;;;;;;5001092;28;20543;-35
2022/12/27 11:25:30;;;;;;;11.23;3.40;;;10.30;99.90;;;;;;5006957;28;20042;-36
2022/12/27 11:28:13;;;;;;;55.28;27.10;;;10.30;99.90;;;;;;4996286;28;20042;-37
2022/12/27 11:30:49;;;;;;;35.75;17.73;;;10.20;99.90;;;;;;5012744;28;20500;-35
2022/12/27 11:33:19;;;;;;;18.38;10.77;;;10.10;99.90;;;;;;4996687;28;20045;-36
2022/12/27 11:35:49;;;;;;;13.98;7.63;;;9.70;99.90;;;;;;5016773;28;20046;-36
2022/12/27 11:38:20;;;;;;;14.20;7.65;;;9.20;99.90;;;;;;4996956;28;20407;-36
2022/12/27 11:41:08;;;;;;;14.43;6.57;;;8.90;99.90;;;;;;4996200;28;20038;-36
2022/12/27 11:43:54;;;;;;;9.15;4.57;;;9.20;99.90;;;;;;5013932;28;20049;-36
2022/12/27 11:46:27;;;;;;;13.07;6.07;;;9.30;99.90;;;;;;4995777;28;20038;-36
2022/12/27 11:48:58;;;;;;;9.98;5.07;;;9.20;99.90;;;;;;4999518;28;20411;-36
2022/12/27 11:51:47;;;;;;;7.05;3.88;;;9.00;99.90;;;;;;4985832;28;20469;-36
2022/12/27 11:54:21;;;;;;;7.55;4.32;;;8.70;99.90;;;;;;5010689;28;20045;-35
2022/12/27 11:56:53;;;;;;;11.30;4.13;;;8.60;99.90;;;;;;4996788;28;20113;-37
2022/12/27 11:59:44;;;;;;;7.80;4.22;;;8.50;99.90;;;;;;4997249;28;20037;-35
2022/12/27 12:02:38;;;;;;;10.25;5.95;;;8.30;99.90;;;;;;4994014;28;20146;-35
2022/12/27 12:05:13;;;;;;;;;;;8.20;99.90;;;;;;4993594;28;20029;-35
2022/12/27 12:08:10;;;;;;;7.53;4.28;;;8.30;99.90;;;;;;4987493;28;19921;-36
2022/12/27 12:10:51;;;;;;;12.48;4.32;;;8.20;99.90;;;;;;4989243;28;20105;-35
2022/12/27 12:13:39;;;;;;;13.70;4.05;;;8.10;99.90;;;;;;5012203;28;20034;-36
2022/12/27 12:16:24;;;;;;;10.27;4.53;;;8.00;99.90;;;;;;4994083;28;20037;-36
2022/12/27 12:19:11;;;;;;;14.18;5.35;;;7.80;99.90;;;;;;4995320;28;20030;-35
2022/12/27 12:21:55;;;;;;;10.43;4.55;;;7.70;99.90;;;;;;5000057;28;20132;-36
2022/12/27 12:24:49;;;;;;;;;;;7.60;99.90;;;;;;4997011;28;20025;-35
2022/12/27 12:27:35;;;;;;;11.70;5.78;;;7.50;99.90;;;;;;5013039;28;19925;-35
2022/12/27 12:30:40;;;;;;;10.65;5.05;;;7.60;99.90;;;;;;5001549;28;20399;-36
2022/12/27 12:33:31;;;;;;;9.13;4.80;;;7.70;99.90;;;;;;4987991;28;20104;-35
2022/12/27 12:36:46;;;;;;;9.05;4.97;;;7.70;99.90;;;;;;4995911;28;20447;-35
2022/12/27 12:39:20;;;;;;;10.27;5.22;;;7.60;99.90;;;;;;4988159;28;20070;-35
2022/12/27 12:41:53;;;;;;;;;;;7.50;99.90;;;;;;4995509;28;20068;-35
2022/12/27 12:44:48;;;;;;;9.90;6.50;;;7.50;99.90;;;;;;4998771;28;19943;-35
2022/12/27 12:47:26;;;;;;;10.13;5.57;;;7.30;99.90;;;;;;4993978;28;20543;-35
2022/12/27 12:50:14;;;;;;;14.85;6.35;;;7.30;99.90;;;;;;4998745;28;20045;-36
2022/12/27 12:53:13;;;;;;;8.52;6.05;;;7.20;99.90;;;;;;4997266;28;20060;-36
2022/12/27 12:56:08;;;;;;;10.45;6.53;;;7.20;99.90;;;;;;4996353;28;20045;-36
2022/12/27 12:58:57;;;;;;;11.85;6.70;;;7.40;99.90;;;;;;4988653;28;20073;-36
2022/12/27 13:02:04;;;;;;;12.93;6.35;;;7.70;99.90;;;;;;4993626;28;20049;-36
2022/12/27 13:05:08;;;;;;;10.30;7.22;;;7.80;99.90;;;;;;4991485;28;20061;-36
2022/12/27 13:07:47;;;;;;;11.23;7.50;;;7.80;99.90;;;;;;4991008;28;20038;-36
2022/12/27 13:10:28;;;;;;;11.88;7.57;;;7.70;99.90;;;;;;5014646;28;20108;-36
2022/12/27 13:13:05;;;;;;;14.88;8.20;;;7.60;99.90;;;;;;5004817;28;20121;-35
2022/12/27 13:15:55;;;;;;;14.20;7.82;;;7.60;99.90;;;;;;4990135;28;20044;-35
2022/12/27 13:18:39;;;;;;;15.27;8.80;;;7.50;99.90;;;;;;4999834;28;20065;-35
2022/12/27 13:21:19;;;;;;;15.57;8.70;;;7.50;99.90;;;;;;5002445;28;20044;-35
2022/12/27 13:24:32;;;;;;;13.35;8.98;;;7.40;99.90;;;;;;4996923;28;20064;-35
2022/12/27 13:27:17;;;;;;;11.15;8.52;;;7.40;99.90;;;;;;4966672;28;20056;-35
2022/12/27 13:29:58;;;;;;;15.80;9.48;;;7.40;99.90;;;;;;5003747;28;20046;-36
2022/12/27 13:32:30;;;;;;;12.75;9.82;;;7.40;99.90;;;;;;4996468;28;20044;-37
2022/12/27 13:34:59;;;;;;;14.55;10.02;;;7.30;99.90;;;;;;5006143;28;20037;-36
2022/12/27 13:38:03;;;;;;;14.63;10.95;;;7.20;99.90;;;;;;5008402;28;20029;-36
2022/12/27 13:40:50;;;;;;;15.27;10.75;;;7.10;99.90;;;;;;5003404;28;20106;-36
2022/12/27 13:43:35;;;;;;;12.55;10.30;;;7.10;99.90;;;;;;5008984;28;20518;-37
2022/12/27 13:46:07;;;;;;;16.20;10.80;;;7.10;99.90;;;;;;4984074;28;20057;-36
2022/12/27 13:48:49;;;;;;;18.98;11.38;;;7.10;99.90;;;;;;5008976;28;20495;-36
2022/12/27 13:51:37;;;;;;;15.85;11.68;;;7.10;99.90;;;;;;4998418;28;20443;-36
2022/12/27 13:54:26;;;;;;;14.52;11.52;;;7.20;99.90;;;;;;4996271;28;20044;-36
2022/12/27 13:57:26;;;;;;;17.48;11.30;;;7.40;99.90;;;;;;4978198;28;20052;-36
2022/12/27 14:00:17;;;;;;;14.45;11.70;;;7.30;99.90;;;;;;4994921;28;20800;-36
2022/12/27 14:03:04;;;;;;;16.08;11.80;;;7.30;99.90;;;;;;4999393;28;20382;-36
2022/12/27 14:06:01;;;;;;;17.42;10.82;;;7.10;99.90;;;;;;4997160;28;20038;-36
2022/12/27 14:08:51;;;;;;;13.40;10.82;;;7.10;99.90;;;;;;4979437;28;20040;-36
2022/12/27 14:11:58;;;;;;;18.92;13.05;;;7.00;99.90;;;;;;5012831;28;20041;-36
2022/12/27 14:14:29;;;;;;;16.88;12.10;;;6.90;99.90;;;;;;5012697;28;20088;-36
2022/12/27 14:17:54;;;;;;;13.90;11.82;;;6.80;99.90;;;;;;5015929;28;20044;-36
2022/12/27 14:20:43;;;;;;;21.23;13.30;;;6.80;99.90;;;;;;4969285;28;20125;-36
2022/12/27 14:23:35;;;;;;;19.33;14.52;;;6.70;99.90;;;;;;4996182;28;20049;-36
2022/12/27 14:26:10;;;;;;;19.48;14.27;;;6.60;99.90;;;;;;4978485;28;20107;-36
2022/12/27 14:28:57;;;;;;;23.15;16.15;;;6.60;99.90;;;;;;4971658;28;20130;-36
2022/12/27 14:31:31;;;;;;;16.55;12.45;;;6.60;99.90;;;;;;5003890;28;20296;-36
2022/12/27 14:34:26;;;;;;;20.17;14.27;;;6.50;99.90;;;;;;4995316;28;20396;-36
2022/12/27 14:37:13;;;;;;;19.58;13.43;;;6.40;99.90;;;;;;4996332;28;20479;-36
2022/12/27 14:40:00;;;;;;;18.17;13.63;;;6.40;99.90;;;;;;4995539;28;20155;-36
2022/12/27 14:42:44;;;;;;;22.70;18.48;;;6.30;99.90;;;;;;5012357;28;20038;-36
2022/12/27 14:45:48;;;;;;;20.08;14.63;;;6.30;99.90;;;;;;5001840;28;20045;-36
2022/12/27 14:48:48;;;;;;;19.00;13.87;;;6.20;99.90;;;;;;4997296;28;20459;-36
2022/12/27 14:51:33;;;;;;;17.08;13.30;;;6.20;99.90;;;;;;5013254;28;20149;-36
2022/12/27 14:54:36;;;;;;;21.65;14.00;;;6.10;99.90;;;;;;5013706;28;20045;-35
2022/12/27 14:57:07;;;;;;;20.58;13.43;;;6.10;99.90;;;;;;4995265;28;20037;-36
2022/12/27 15:00:09;;;;;;;21.92;13.15;;;6.00;99.90;;;;;;4994988;28;20064;-36
2022/12/27 15:03:13;;;;;;;18.95;13.35;;;5.90;99.90;;;;;;5012431;28;20034;-36